Time;durP1;ratioP1;P1;durP2;ratioP2;P2;SDS_P1;SDS_P2;PMS_P1;PMS_P2;Temp;Humidity;BMP_temperature;BMP_pressure;BME280_temperature;BME280_humidity;BME280_pressure;Samples;Min_cycle;Max_cycle;Signal;HPM_P1;HPM_P2
2022/10/15 00:00:33;;;;;;;29.65;16.05;;;;;;;10.27;100.00;100756.38;6178184;23;20005;-90
2022/10/15 00:02:58;;;;;;;28.10;15.65;;;;;;;10.28;100.00;100759.81;6179034;23;20001;-90
2022/10/15 00:05:24;;;;;;;27.40;15.63;;;;;;;10.21;100.00;100748.75;6181064;23;20011;-90
2022/10/15 00:07:49;;;;;;;28.90;15.10;;;;;;;10.19;100.00;100758.28;6181440;23;20008;-90
2022/10/15 00:10:15;;;;;;;26.75;15.18;;;;;;;10.19;100.00;100765.22;6180923;23;20066;-90
2022/10/15 00:12:41;;;;;;;26.17;14.55;;;;;;;10.13;100.00;100761.00;6182683;23;20443;-91
2022/10/15 00:15:07;;;;;;;28.02;15.15;;;;;;;10.13;100.00;100763.59;6181054;23;20061;-90
2022/10/15 00:17:34;;;;;;;25.95;15.07;;;;;;;10.13;100.00;100757.56;6180541;23;20001;-90
2022/10/15 00:20:00;;;;;;;26.55;15.05;;;;;;;10.11;100.00;100764.50;6180502;23;20009;-91
2022/10/15 00:22:29;;;;;;;25.45;15.48;;;;;;;10.08;100.00;100756.81;6181093;23;20067;-90
2022/10/15 00:24:54;;;;;;;25.05;14.90;;;;;;;10.05;100.00;100755.13;6179991;23;20011;-89
2022/10/15 00:27:20;;;;;;;27.30;15.35;;;;;;;9.97;100.00;100749.28;6180790;23;20004;-90
2022/10/15 00:29:45;;;;;;;28.58;15.52;;;;;;;9.92;100.00;100743.34;6179816;23;20493;-90
2022/10/15 00:32:11;;;;;;;29.70;16.05;;;;;;;10.02;100.00;100768.19;6179951;23;20051;-90
2022/10/15 00:34:42;;;;;;;25.33;14.48;;;;;;;9.90;100.00;100750.31;6180641;23;20013;-91
2022/10/15 00:37:44;;;;;;;28.75;15.27;;;;;;;10.02;100.00;100764.72;6173537;23;20013;-90
2022/10/15 00:40:13;;;;;;;29.27;16.20;;;;;;;9.97;100.00;100753.59;6177006;23;21081;-90
2022/10/15 00:42:39;;;;;;;29.85;16.38;;;;;;;10.07;100.00;100762.88;6176770;23;20499;-90
2022/10/15 00:45:05;;;;;;;30.10;16.35;;;;;;;10.03;100.00;100751.72;6181382;23;20812;-90
2022/10/15 00:47:39;;;;;;;31.17;16.63;;;;;;;10.03;100.00;100758.66;6179337;23;20008;-90
2022/10/15 00:50:13;;;;;;;33.70;17.63;;;;;;;10.19;100.00;100775.56;6182063;23;20005;-90
2022/10/15 00:52:58;;;;;;;29.95;16.45;;;;;;;10.12;100.00;100755.84;6182047;23;20001;-90
2022/10/15 00:55:31;;;;;;;30.10;16.55;;;;;;;10.17;100.00;100747.13;6178835;23;20016;-90
2022/10/15 00:58:09;;;;;;;33.03;16.95;;;;;;;10.29;100.00;100769.31;6182070;23;20001;-91
2022/10/15 01:00:37;;;;;;;30.98;17.70;;;;;;;10.26;100.00;100746.91;6180869;23;20384;-91
2022/10/15 01:03:03;;;;;;;30.80;17.50;;;;;;;10.37;100.00;100758.75;6178715;23;20001;-91
2022/10/15 01:05:29;;;;;;;38.17;18.60;;;;;;;10.42;100.00;100770.72;6180712;23;20005;-91
2022/10/15 01:07:55;;;;;;;34.35;17.50;;;;;;;10.45;100.00;100759.41;6182015;23;20013;-92
2022/10/15 01:10:21;;;;;;;30.63;17.83;;;;;;;10.52;100.00;100760.97;6181222;23;20080;-92
2022/10/15 01:13:05;;;;;;;35.13;17.85;;;;;;;10.49;100.00;100751.53;6181232;23;20012;-91
2022/10/15 01:15:54;;;;;;;35.15;18.10;;;;;;;10.58;100.00;100761.66;6179713;23;20464;-91
2022/10/15 01:18:25;;;;;;;31.50;17.52;;;;;;;10.60;100.00;100759.03;6181829;23;20079;-91
2022/10/15 01:20:59;;;;;;;32.05;18.05;;;;;;;10.64;100.00;100747.72;6181871;23;20005;-91
2022/10/15 01:23:57;;;;;;;34.35;18.00;;;;;;;10.63;100.00;100749.44;6180567;23;20071;-91
2022/10/15 01:26:45;;;;;;;32.78;19.13;;;;;;;10.70;100.00;100744.97;6179362;23;20089;-91
2022/10/15 01:29:27;;;;;;;40.63;20.17;;;;;;;10.60;100.00;100718.41;6180530;23;20012;-90
2022/10/15 01:32:11;;;;;;;39.08;19.65;;;;;;;10.69;100.00;100717.34;6181125;23;20008;-91
2022/10/15 01:35:02;;;;;;;39.10;19.95;;;;;;;10.79;100.00;100721.38;6181008;23;20084;-91
2022/10/15 01:37:44;;;;;;;38.05;19.35;;;;;;;10.85;100.00;100722.97;6165277;23;20009;-92
2022/10/15 01:40:43;;;;;;;37.45;19.50;;;;;;;10.88;100.00;100721.13;6182160;23;20557;-91
2022/10/15 01:43:14;;;;;;;40.45;20.20;;;;;;;10.87;100.00;100711.66;6179098;23;19997;-92
2022/10/15 01:45:45;;;;;;;44.42;22.40;;;;;;;10.87;100.00;100710.78;6178823;23;20284;-92
2022/10/15 01:48:15;;;;;;;42.90;22.05;;;;;;;10.92;100.00;100719.28;6179638;23;20056;-92
2022/10/15 01:50:51;;;;;;;37.67;20.15;;;;;;;10.95;100.00;100727.84;6181157;23;20016;-92
2022/10/15 01:53:25;;;;;;;44.45;22.65;;;;;;;11.05;100.00;100734.47;6179407;23;20025;-92
2022/10/15 01:55:54;;;;;;;46.38;22.88;;;;;;;10.97;100.00;100705.34;6178973;23;20088;-92
2022/10/15 01:58:21;;;;;;;42.05;21.63;;;;;;;11.06;100.00;100709.41;6180102;23;20020;-90
2022/10/15 02:00:47;;;;;;;47.72;23.65;;;;;;;11.12;100.00;100711.00;6178626;23;20009;-91
2022/10/15 02:03:13;;;;;;;48.28;24.48;;;;;;;11.15;100.00;100700.50;6178822;23;20419;-91
2022/10/15 02:06:02;;;;;;;44.28;22.88;;;;;;;11.16;100.00;100699.63;6178969;23;20411;-90
2022/10/15 02:08:44;;;;;;;40.72;22.40;;;;;;;11.14;100.00;100694.47;6180319;23;20063;-91
2022/10/15 02:11:15;;;;;;;49.60;23.40;;;;;;;11.19;100.00;100686.56;6178430;23;20055;-90
2022/10/15 02:14:07;;;;;;;51.05;24.67;;;;;;;11.25;100.00;100691.59;6178321;23;20059;-91
2022/10/15 02:16:42;;;;;;;44.45;23.25;;;;;;;11.40;100.00;100706.69;6177250;23;20084;-90
2022/10/15 02:19:13;;;;;;;;;;;;;;;11.44;100.00;100703.97;6181770;23;20005;-90
2022/10/15 02:21:47;;;;;;;44.75;22.65;;;;;;;11.46;100.00;100706.53;6180102;23;19904;-91
2022/10/15 02:24:25;;;;;;;38.40;20.45;;;;;;;11.39;100.00;100690.28;6177763;23;20043;-90
2022/10/15 02:26:53;;;;;;;43.75;23.10;;;;;;;11.31;100.00;100675.84;6177897;23;20001;-90
2022/10/15 02:29:22;;;;;;;41.90;22.77;;;;;;;11.38;100.00;100679.94;6180462;23;20316;-90
2022/10/15 02:31:49;;;;;;;38.20;20.17;;;;;;;11.42;100.00;100684.16;6179685;23;20001;-90
2022/10/15 02:34:21;;;;;;;42.25;21.80;;;;;;;11.49;100.00;100691.72;6180616;23;20005;-91
2022/10/15 02:36:48;;;;;;;41.80;22.15;;;;;;;11.51;100.00;100693.41;6178513;23;20498;-90
2022/10/15 02:39:23;;;;;;;46.53;25.00;;;;;;;11.52;100.00;100688.19;6179232;23;19997;-90
2022/10/15 02:41:49;;;;;;;43.38;23.05;;;;;;;11.49;100.00;100681.31;6179706;23;20004;-90
2022/10/15 02:44:15;;;;;;;37.53;21.95;;;;;;;11.51;100.00;100675.25;6178228;23;20005;-90
2022/10/15 02:46:40;;;;;;;42.42;22.60;;;;;;;11.42;100.00;100661.63;6178797;23;20064;-90
2022/10/15 02:49:06;;;;;;;39.75;20.77;;;;;;;11.43;100.00;100665.09;6180566;23;20435;-89
2022/10/15 02:51:33;;;;;;;36.97;20.60;;;;;;;11.46;100.00;100672.78;6179347;23;20008;-91
2022/10/15 02:53:59;;;;;;;40.72;21.88;;;;;;;11.41;100.00;100666.88;6180628;23;20009;-90
2022/10/15 02:56:25;;;;;;;36.75;20.92;;;;;;;11.41;100.00;100666.88;6180539;23;20005;-90
2022/10/15 02:58:50;;;;;;;38.40;21.17;;;;;;;11.40;100.00;100663.41;6177278;23;20025;-90
2022/10/15 03:01:16;;;;;;;37.40;20.33;;;;;;;11.40;100.00;100657.38;6176121;23;20012;-90
2022/10/15 03:03:41;;;;;;;39.95;21.00;;;;;;;11.35;100.00;100646.28;6179962;23;19997;-90
2022/10/15 03:06:07;;;;;;;41.05;21.00;;;;;;;11.33;100.00;100640.28;6178549;23;20001;-91
2022/10/15 03:08:32;;;;;;;37.67;20.75;;;;;;;11.24;100.00;100622.41;6181535;23;20646;-90
2022/10/15 03:11:01;;;;;;;37.45;20.67;;;;;;;11.24;100.00;100623.28;6180351;23;20009;-91
2022/10/15 03:13:27;;;;;;;38.53;21.13;;;;;;;11.22;100.00;100626.81;6176060;23;20135;-90
2022/10/15 03:15:55;;;;;;;35.53;20.48;;;;;;;11.24;100.00;100630.22;6179140;23;20009;-91
2022/10/15 03:18:21;;;;;;;35.83;19.85;;;;;;;11.21;100.00;100628.53;6179322;23;20011;-90
2022/10/15 03:20:54;;;;;;;35.25;19.92;;;;;;;11.25;100.00;100632.75;6178822;23;20028;-90
2022/10/15 03:23:20;;;;;;;34.75;19.77;;;;;;;11.23;100.00;100637.13;6180849;23;20028;-91
2022/10/15 03:25:46;;;;;;;33.15;19.25;;;;;;;11.28;100.00;100649.97;6180647;23;20001;-90
2022/10/15 03:28:14;;;;;;;32.55;19.05;;;;;;;11.26;100.00;100641.41;6180814;23;20004;-90
2022/10/15 03:30:41;;;;;;;36.00;19.98;;;;;;;11.31;100.00;100652.47;6178854;23;20019;-90
2022/10/15 03:33:06;;;;;;;35.15;19.23;;;;;;;11.25;100.00;100639.69;6178693;23;20077;-90
2022/10/15 03:35:32;;;;;;;31.95;18.45;;;;;;;11.32;100.00;100649.00;6180783;23;20012;-90
2022/10/15 03:37:57;;;;;;;40.42;21.10;;;;;;;11.33;100.00;100651.53;6179054;23;20001;-91
2022/10/15 03:40:22;;;;;;;36.08;19.88;;;;;;;11.35;100.00;100646.28;6179180;23;20008;-90
2022/10/15 03:42:51;;;;;;;37.13;21.20;;;;;;;11.36;100.00;100656.63;6179881;23;20083;-91
2022/10/15 03:45:19;;;;;;;42.10;21.85;;;;;;;11.37;100.00;100634.97;6182222;23;20017;-90
2022/10/15 03:47:45;;;;;;;42.85;21.33;;;;;;;11.36;100.00;100635.03;6180728;23;20091;-90
2022/10/15 03:50:11;;;;;;;41.80;21.67;;;;;;;11.43;100.00;100636.53;6180849;23;20044;-90
2022/10/15 03:52:37;;;;;;;38.75;20.30;;;;;;;11.45;100.00;100638.19;6181611;23;20008;-90
2022/10/15 03:55:03;;;;;;;45.95;23.05;;;;;;;11.51;100.00;100631.13;6181365;23;20112;-90
2022/10/15 03:57:29;;;;;;;42.40;21.75;;;;;;;11.54;100.00;100636.19;6180704;23;20466;-89
2022/10/15 03:59:55;;;;;;;43.15;21.42;;;;;;;11.55;100.00;100632.72;6182782;23;20011;-90
2022/10/15 04:02:20;;;;;;;42.22;20.85;;;;;;;11.56;100.00;100624.88;6179871;23;20003;-90
2022/10/15 04:04:45;;;;;;;36.95;19.63;;;;;;;11.60;100.00;100623.06;6181222;23;20033;-90
2022/10/15 04:07:11;;;;;;;37.47;19.90;;;;;;;11.63;100.00;100631.56;6180402;23;20005;-89
2022/10/15 04:09:36;;;;;;;38.10;20.08;;;;;;;11.66;100.00;100620.25;6183310;23;20005;-91
2022/10/15 04:12:04;;;;;;;41.33;21.63;;;;;;;11.65;100.00;100611.63;6182194;23;19997;-92
2022/10/15 04:14:32;;;;;;;43.53;21.77;;;;;;;11.64;100.00;100612.50;6182760;23;20015;-92
2022/10/15 04:16:57;;;;;;;46.42;22.33;;;;;;;11.62;100.00;100613.44;6181847;23;20036;-91
2022/10/15 04:19:23;;;;;;;48.28;22.67;;;;;;;11.68;100.00;100624.47;6182362;23;20001;-91
2022/10/15 04:21:49;;;;;;;47.35;22.50;;;;;;;11.69;100.00;100631.38;6180234;23;20004;-91
2022/10/15 04:24:14;;;;;;;38.78;20.17;;;;;;;11.64;100.00;100616.84;6182111;23;20022;-90
2022/10/15 04:26:39;;;;;;;34.17;18.05;;;;;;;11.72;100.00;100644.28;6180920;23;20007;-91
2022/10/15 04:29:11;;;;;;;46.13;21.10;;;;;;;11.71;100.00;100645.19;6183148;23;20033;-91
2022/10/15 04:31:37;;;;;;;45.08;21.35;;;;;;;11.73;100.00;100648.59;6180406;23;20024;-92
2022/10/15 04:34:03;;;;;;;46.38;21.55;;;;;;;11.72;100.00;100648.63;6182248;23;20076;-91
2022/10/15 04:36:28;;;;;;;47.50;21.63;;;;;;;11.65;100.00;100634.97;6182898;23;20001;-90
2022/10/15 04:38:54;;;;;;;47.45;21.48;;;;;;;11.70;100.00;100627.03;6183065;23;20043;-90
2022/10/15 04:41:19;;;;;;;48.85;22.08;;;;;;;11.81;100.00;100644.00;6180630;23;20039;-90
2022/10/15 04:43:45;;;;;;;49.92;21.23;;;;;;;11.76;100.00;100626.88;6181955;23;19997;-89
2022/10/15 04:46:10;;;;;;;52.88;22.42;;;;;;;11.91;100.00;100648.91;6181162;23;20017;-91
2022/10/15 04:48:37;;;;;;;46.15;21.40;;;;;;;11.82;100.00;100626.66;6181291;23;20028;-90
2022/10/15 04:51:10;;;;;;;46.03;21.40;;;;;;;11.96;100.00;100639.22;6180834;23;20084;-90
2022/10/15 04:53:35;;;;;;;51.65;21.20;;;;;;;12.01;100.00;100642.53;6179852;23;20011;-90
2022/10/15 04:56:07;;;;;;;55.33;22.35;;;;;;;12.04;100.00;100640.66;6182759;23;20024;-90
2022/10/15 04:58:34;;;;;;;57.53;22.60;;;;;;;12.04;100.00;100627.69;6181377;23;20005;-90
2022/10/15 05:01:05;;;;;;;54.63;22.30;;;;;;;12.13;100.00;100629.97;6182226;23;20371;-89
2022/10/15 05:03:31;;;;;;;53.92;21.75;;;;;;;12.13;100.00;100627.38;6180176;23;20051;-89
2022/10/15 05:06:02;;;;;;;55.92;23.40;;;;;;;12.17;100.00;100634.16;6182745;23;20005;-90
2022/10/15 05:08:32;;;;;;;57.28;23.33;;;;;;;12.22;100.00;100634.00;6182359;23;20011;-90
2022/10/15 05:11:06;;;;;;;54.45;22.75;;;;;;;12.26;100.00;100636.47;6182374;23;20060;-89
2022/10/15 05:13:32;;;;;;;54.10;22.60;;;;;;;12.26;100.00;100633.00;6180133;23;20044;-90
2022/10/15 05:16:08;;;;;;;52.75;22.38;;;;;;;12.30;100.00;100633.75;6180278;23;20001;-89
2022/10/15 05:18:33;;;;;;;57.95;21.70;;;;;;;12.33;100.00;100638.84;6180227;23;20035;-90
2022/10/15 05:21:02;;;;;;;55.13;21.52;;;;;;;12.35;100.00;100642.25;6180008;23;20029;-90
2022/10/15 05:23:27;;;;;;;55.88;21.42;;;;;;;12.35;100.00;100635.28;6182054;23;20375;-89
2022/10/15 05:25:52;;;;;;;54.78;21.55;;;;;;;12.35;100.00;100640.47;6179195;23;20435;-90
2022/10/15 05:28:18;;;;;;;51.97;21.42;;;;;;;12.36;100.00;100638.72;6182305;23;20011;-90
2022/10/15 05:30:43;;;;;;;53.60;22.02;;;;;;;12.38;100.00;100642.13;6181825;23;20039;-90
2022/10/15 05:33:08;;;;;;;53.25;21.35;;;;;;;12.39;100.00;100644.69;6181156;23;20051;-90
2022/10/15 05:35:34;;;;;;;47.17;20.38;;;;;;;12.41;100.00;100642.91;6180151;23;20013;-90
2022/10/15 05:37:59;;;;;;;51.60;20.83;;;;;;;12.41;100.00;100640.28;6180681;23;20020;-90
2022/10/15 05:40:25;;;;;;;50.65;20.80;;;;;;;12.42;100.00;100638.53;6182929;23;20312;-91
2022/10/15 05:42:52;;;;;;;47.67;19.92;;;;;;;12.42;100.00;100638.53;6181210;23;20246;-92
2022/10/15 05:45:18;;;;;;;44.22;19.50;;;;;;;12.44;100.00;100637.56;6180126;23;20017;-92
2022/10/15 05:47:43;;;;;;;46.50;19.45;;;;;;;12.40;100.00;100632.53;6181370;23;20135;-92
2022/10/15 05:50:11;;;;;;;48.05;19.55;;;;;;;12.40;100.00;100629.94;6182173;23;20431;-90
2022/10/15 05:52:36;;;;;;;50.13;19.83;;;;;;;12.51;100.00;100646.00;6182580;23;20434;-90
2022/10/15 05:55:02;;;;;;;46.07;19.37;;;;;;;12.51;100.00;100646.00;6182788;23;20079;-93
2022/10/15 05:57:27;;;;;;;43.90;18.75;;;;;;;12.52;100.00;100643.34;6180806;23;20249;-91
2022/10/15 05:59:52;;;;;;;46.15;19.10;;;;;;;12.44;100.00;100628.91;6182540;23;20011;-91
2022/10/15 06:02:18;;;;;;;43.42;19.05;;;;;;;12.48;100.00;100633.13;6181146;23;20070;-91
2022/10/15 06:04:43;;;;;;;43.83;18.73;;;;;;;12.50;100.00;100629.56;6180129;23;20016;-91
2022/10/15 06:07:09;;;;;;;42.78;18.05;;;;;;;12.49;100.00;100635.66;6182427;23;20454;-91
2022/10/15 06:09:34;;;;;;;40.85;17.35;;;;;;;12.42;100.00;100621.16;6179952;23;20024;-91
2022/10/15 06:12:00;;;;;;;42.08;18.08;;;;;;;12.43;100.00;100622.03;6183090;23;20005;-92
2022/10/15 06:14:25;;;;;;;41.28;18.40;;;;;;;12.47;100.00;100632.28;6182345;23;20099;-92
2022/10/15 06:16:53;;;;;;;42.15;18.77;;;;;;;12.55;100.00;100642.41;6180622;23;20009;-92
2022/10/15 06:19:19;;;;;;;42.05;18.25;;;;;;;12.46;100.00;100621.94;6181129;23;20007;-92
2022/10/15 06:21:44;;;;;;;42.03;18.27;;;;;;;12.59;100.00;100651.78;6181476;23;19993;-92
2022/10/15 06:24:10;;;;;;;41.88;17.88;;;;;;;12.49;100.00;100627.84;6182340;23;20388;-91
2022/10/15 06:26:36;;;;;;;43.97;18.35;;;;;;;12.48;100.00;100614.94;6178915;23;20019;-91
2022/10/15 06:29:01;;;;;;;42.63;18.75;;;;;;;12.53;100.00;100621.66;6180655;23;20059;-91
2022/10/15 06:31:26;;;;;;;43.08;18.35;;;;;;;12.61;100.00;100635.25;6182528;23;19989;-92
2022/10/15 06:33:52;;;;;;;44.47;19.50;;;;;;;12.56;100.00;100624.13;6181498;23;20066;-92
2022/10/15 06:36:17;;;;;;;41.35;18.35;;;;;;;12.65;100.00;100636.81;6180156;23;20001;-92
2022/10/15 06:38:45;;;;;;;45.08;19.58;;;;;;;12.64;100.00;100635.13;6181165;23;20063;-91
2022/10/15 06:41:11;;;;;;;41.63;18.33;;;;;;;12.72;100.00;100647.84;6180678;23;20093;-91
2022/10/15 06:43:36;;;;;;;43.58;19.15;;;;;;;12.70;100.00;100639.25;6180704;23;20045;-92
2022/10/15 06:46:04;;;;;;;46.45;19.42;;;;;;;12.68;100.00;100633.28;6180408;23;20035;-92
2022/10/15 06:48:30;;;;;;;47.63;19.60;;;;;;;12.68;100.00;100624.63;6179930;23;20005;-92
2022/10/15 06:50:58;;;;;;;46.40;19.42;;;;;;;12.74;100.00;100633.06;6180890;23;20320;-91
2022/10/15 06:53:23;;;;;;;45.00;20.30;;;;;;;12.82;100.00;100638.84;6179797;23;20009;-92
2022/10/15 06:55:49;;;;;;;51.65;21.20;;;;;;;12.84;100.00;100641.34;6179998;23;20008;-91
2022/10/15 06:58:17;;;;;;;52.50;21.45;;;;;;;12.83;100.00;100643.09;6180419;23;20032;-92
2022/10/15 07:00:42;;;;;;;45.08;19.63;;;;;;;12.85;100.00;100633.50;6180383;23;20503;-90
2022/10/15 07:03:08;;;;;;;46.97;20.08;;;;;;;12.85;100.00;100633.50;6177605;23;20076;-90
2022/10/15 07:05:34;;;;;;;46.38;19.80;;;;;;;12.89;100.00;100636.84;6179827;23;20136;-91
2022/10/15 07:08:00;;;;;;;45.88;19.67;;;;;;;12.97;100.00;100642.59;6180508;23;20016;-91
2022/10/15 07:10:27;;;;;;;44.95;19.92;;;;;;;12.91;100.00;100629.81;6177712;23;20378;-90
2022/10/15 07:12:53;;;;;;;43.08;18.80;;;;;;;12.99;100.00;100646.00;6180556;23;20067;-91
2022/10/15 07:15:20;;;;;;;45.65;20.55;;;;;;;13.05;100.00;100649.22;6180021;23;20005;-90
2022/10/15 07:17:50;;;;;;;47.00;20.17;;;;;;;13.10;100.00;100646.44;6181783;23;20493;-90
2022/10/15 07:20:16;;;;;;;40.00;18.45;;;;;;;13.14;100.00;100640.28;6180303;23;20427;-90
2022/10/15 07:22:41;;;;;;;43.53;19.17;;;;;;;13.14;100.00;100642.88;6181535;23;20064;-90
2022/10/15 07:25:08;;;;;;;39.47;17.75;;;;;;;13.16;100.00;100648.03;6181046;23;20025;-91
2022/10/15 07:27:34;;;;;;;40.70;18.85;;;;;;;13.15;100.00;100646.31;6179862;23;20083;-90
2022/10/15 07:29:59;;;;;;;38.13;16.58;;;;;;;13.11;100.00;100650.75;6181380;23;20079;-90
2022/10/15 07:32:25;;;;;;;40.80;17.17;;;;;;;13.05;100.00;100640.56;6180369;23;20122;-91
2022/10/15 07:34:50;;;;;;;42.10;18.45;;;;;;;13.04;100.00;100638.88;6181853;23;20032;-90
2022/10/15 07:37:15;;;;;;;35.72;17.20;;;;;;;13.04;100.00;100633.66;6180095;23;20008;-90
2022/10/15 07:39:41;;;;;;;43.83;17.55;;;;;;;13.05;100.00;100625.81;6179722;23;20080;-91
2022/10/15 07:42:06;;;;;;;37.22;17.30;;;;;;;13.05;100.00;100610.19;6181319;23;20502;-90
2022/10/15 07:44:31;;;;;;;36.42;15.48;;;;;;;13.15;100.00;100613.34;6180149;23;20041;-91
2022/10/15 07:46:57;;;;;;;38.15;16.83;;;;;;;13.23;100.00;100610.47;6181192;23;20251;-92
2022/10/15 07:49:22;;;;;;;36.67;16.63;;;;;;;13.27;100.00;100612.03;6181653;23;20004;-91
2022/10/15 07:51:48;;;;;;;39.35;15.95;;;;;;;13.26;100.00;100611.16;6181421;23;20077;-91
2022/10/15 07:54:13;;;;;;;38.33;16.50;;;;;;;13.30;100.00;100619.72;6181686;23;20063;-91
2022/10/15 07:56:39;;;;;;;38.92;16.23;;;;;;;13.29;100.00;100611.06;6180683;23;20032;-90
2022/10/15 07:59:06;;;;;;;38.05;16.05;;;;;;;13.33;100.00;100617.00;6181238;23;20512;-90
2022/10/15 08:01:32;;;;;;;36.85;15.93;;;;;;;13.19;100.00;100601.91;6182521;23;20001;-90
2022/10/15 08:03:59;;;;;;;37.38;16.15;;;;;;;13.21;100.00;100604.44;6182297;23;20008;-89
2022/10/15 08:06:25;;;;;;;35.90;15.77;;;;;;;13.22;100.00;100598.34;6182954;23;20001;-90
2022/10/15 08:08:50;;;;;;;35.00;14.95;;;;;;;13.32;100.00;100597.91;6181911;23;20096;-90
2022/10/15 08:11:16;;;;;;;32.92;15.07;;;;;;;13.27;100.00;100589.44;6180531;23;20087;-90
2022/10/15 08:13:48;;;;;;;33.10;14.45;;;;;;;13.32;100.00;100586.66;6180392;23;20029;-90
2022/10/15 08:16:19;;;;;;;32.67;14.23;;;;;;;13.32;100.00;100577.09;6179704;23;20012;-91
2022/10/15 08:18:44;;;;;;;35.55;14.38;;;;;;;13.44;100.00;100596.63;6179789;23;20087;-90
2022/10/15 08:21:16;;;;;;;31.85;14.25;;;;;;;13.44;100.00;100592.22;6181402;23;20004;-90
2022/10/15 08:23:41;;;;;;;30.20;14.05;;;;;;;13.46;100.00;100592.16;6179919;23;19997;-90
2022/10/15 08:26:07;;;;;;;30.80;13.40;;;;;;;13.53;100.00;100595.38;6182008;23;20068;-90
2022/10/15 08:28:34;;;;;;;30.60;13.40;;;;;;;13.56;100.00;100593.50;6181358;23;20001;-90
2022/10/15 08:31:03;;;;;;;29.23;13.38;;;;;;;13.64;100.00;100593.22;6181094;23;20092;-90
2022/10/15 08:33:28;;;;;;;27.45;12.30;;;;;;;13.65;100.00;100576.66;6181387;23;20036;-91
2022/10/15 08:35:54;;;;;;;28.65;12.65;;;;;;;13.83;100.00;100575.91;6179391;23;20001;-91
2022/10/15 08:38:19;;;;;;;23.08;11.20;;;;;;;14.08;100.00;100583.53;6182757;23;20011;-90
2022/10/15 08:40:51;;;;;;;24.75;11.23;;;;;;;14.15;100.00;100575.41;6180603;23;20009;-90
2022/10/15 08:43:24;;;;;;;23.80;10.63;;;;;;;14.28;100.00;100586.16;6180895;23;20004;-90
2022/10/15 08:45:54;;;;;;;20.75;10.00;;;;;;;14.29;100.00;100593.06;6178788;23;20499;-90
2022/10/15 08:48:29;;;;;;;23.42;10.50;;;;;;;14.26;100.00;100579.31;6180414;23;20501;-91
2022/10/15 08:51:00;;;;;;;21.02;9.70;;;;;;;14.24;100.00;100561.97;6181889;23;20426;-90
2022/10/15 08:53:28;;;;;;;19.13;9.57;;;;;;;14.37;100.00;100575.34;6180744;23;20530;-90
2022/10/15 08:56:02;;;;;;;19.60;9.15;;;;;;;14.39;100.00;100563.13;6181598;23;20012;-90
2022/10/15 08:58:44;;;;;;;17.02;8.60;;;;;;;14.51;100.00;100574.75;6182250;23;20035;-90
2022/10/15 09:01:25;;;;;;;20.17;8.38;;;;;;;14.55;100.00;100571.94;6181410;23;20005;-90
2022/10/15 09:04:33;;;;;;;17.73;8.13;;;;;;;14.58;100.00;100573.56;6179731;23;20008;-90
2022/10/15 09:07:17;;;;;;;18.48;8.60;;;;;;;14.67;100.00;100554.88;6181626;23;20055;-90
2022/10/15 09:09:43;;;;;;;;;;;;;;;14.80;100.00;100556.03;6182486;23;20386;-90
2022/10/15 09:12:29;;;;;;;15.30;7.70;;;;;;;14.81;100.00;100555.09;6179800;23;20341;-90
2022/10/15 09:14:57;;;;;;;16.05;7.70;;;;;;;14.79;100.00;100549.13;6181656;23;20005;-90
2022/10/15 09:17:28;;;;;;;16.17;8.05;;;;;;;14.85;100.00;100555.81;6179600;23;20059;-90
2022/10/15 09:19:56;;;;;;;18.55;8.35;;;;;;;14.84;100.00;100548.91;6179882;23;20385;-88
2022/10/15 09:22:33;;;;;;;19.15;8.20;;;;;;;14.83;100.00;100547.22;6182156;23;20080;-88
2022/10/15 09:24:59;;;;;;;16.80;8.25;;;;;;;14.82;100.00;100538.53;6181527;23;20448;-88
2022/10/15 09:27:33;;;;;;;15.57;7.95;;;;;;;14.84;100.00;100536.72;6180218;23;20331;-88
2022/10/15 09:30:17;;;;;;;15.95;7.90;;;;;;;14.92;100.00;100545.03;6179901;23;20016;-88
2022/10/15 09:32:50;;;;;;;15.80;7.75;;;;;;;14.88;100.00;100542.63;6179811;23;20009;-88
2022/10/15 09:35:30;;;;;;;16.00;7.80;;;;;;;14.86;100.00;100536.66;6177060;23;20012;-88
2022/10/15 09:38:19;;;;;;;14.80;7.65;;;;;;;14.91;100.00;100534.66;6177896;23;20252;-89
2022/10/15 09:40:50;;;;;;;15.55;7.93;;;;;;;14.90;100.00;100530.34;6179272;23;20091;-89
2022/10/15 09:43:26;;;;;;;15.52;7.85;;;;;;;14.89;100.00;100516.47;6180121;23;20070;-89
2022/10/15 09:45:52;;;;;;;16.08;8.15;;;;;;;14.82;100.00;100520.25;6178788;23;21043;-89
2022/10/15 09:48:18;;;;;;;14.90;7.57;;;;;;;14.84;100.00;100531.50;6179947;23;20009;-88
2022/10/15 09:50:54;;;;;;;15.65;8.23;;;;;;;14.82;100.00;100525.50;6180817;23;20224;-89
2022/10/15 09:53:44;;;;;;;15.40;8.15;;;;;;;14.84;100.00;100523.66;6179142;23;20005;-88
2022/10/15 09:56:17;;;;;;;16.23;7.55;;;;;;;14.83;100.00;100515.91;6179961;23;20063;-88
2022/10/15 09:58:56;;;;;;;13.30;7.05;;;;;;;14.88;100.00;100516.53;6181044;23;20470;-88
2022/10/15 10:01:28;;;;;;;14.45;6.88;;;;;;;14.85;100.00;100525.34;6179408;23;20380;-89
2022/10/15 10:04:17;;;;;;;12.55;6.40;;;;;;;14.83;100.00;100519.34;6181182;23;20037;-89
2022/10/15 10:06:59;;;;;;;12.93;6.57;;;;;;;14.81;100.00;100512.50;6179838;23;20029;-89
2022/10/15 10:09:33;;;;;;;11.45;6.20;;;;;;;14.81;100.00;100520.34;6179056;23;20032;-89
2022/10/15 10:12:07;;;;;;;11.85;6.50;;;;;;;14.77;100.00;100505.75;6178539;23;20004;-89
2022/10/15 10:14:44;;;;;;;11.73;6.68;;;;;;;14.86;100.00;100513.16;6179998;23;20160;-89
2022/10/15 10:17:19;;;;;;;12.05;6.45;;;;;;;14.91;100.00;100509.41;6179563;23;20079;-89
2022/10/15 10:20:02;;;;;;;11.63;6.28;;;;;;;14.89;100.00;100508.63;6178944;23;20419;-89
2022/10/15 10:22:28;;;;;;;11.23;6.60;;;;;;;14.89;100.00;100506.03;6181227;23;20004;-90
2022/10/15 10:24:53;;;;;;;12.23;5.80;;;;;;;14.87;100.00;100500.03;6178885;23;20008;-90
2022/10/15 10:27:24;;;;;;;12.07;6.03;;;;;;;14.82;100.00;100495.94;6177070;23;20012;-90
2022/10/15 10:30:00;;;;;;;11.35;6.32;;;;;;;14.82;100.00;100483.75;6179127;23;20093;-90
2022/10/15 10:32:31;;;;;;;11.90;6.10;;;;;;;14.95;100.00;100491.81;6180619;23;20381;-90
2022/10/15 10:34:59;;;;;;;12.75;5.88;;;;;;;14.98;100.00;100500.38;6180269;23;20009;-89
2022/10/15 10:37:26;;;;;;;10.23;6.00;;;;;;;15.04;100.00;100499.22;6178000;23;20016;-91
2022/10/15 10:39:59;;;;;;;10.85;5.90;;;;;;;15.03;100.00;100489.72;6180150;23;20005;-91
2022/10/15 10:42:31;;;;;;;9.30;5.47;;;;;;;15.14;100.00;100499.66;6181777;23;20005;-90
2022/10/15 10:45:14;;;;;;;8.82;5.00;;;;;;;15.24;100.00;100516.56;6180048;23;20041;-90
2022/10/15 10:47:47;;;;;;;10.10;5.10;;;;;;;15.16;100.00;100492.56;6178654;23;20342;-91
2022/10/15 10:50:34;;;;;;;7.50;4.55;;;;;;;15.24;100.00;100508.72;6180711;23;20020;-90
2022/10/15 10:53:19;;;;;;;7.80;4.78;;;;;;;15.18;100.00;100495.97;6179452;23;20008;-89
2022/10/15 10:55:45;;;;;;;8.13;4.85;;;;;;;15.17;100.00;100482.06;6180235;23;20004;-90
2022/10/15 10:58:21;;;;;;;8.27;4.47;;;;;;;15.15;100.00;100485.69;6179339;23;20345;-90
2022/10/15 11:00:58;;;;;;;8.77;4.28;;;;;;;15.08;100.00;100492.94;6177887;23;20079;-89
2022/10/15 11:03:56;;;;;;;7.40;4.07;;;;;;;15.18;100.00;100490.75;6178587;23;20312;-90
2022/10/15 11:06:43;;;;;;;7.28;4.40;;;;;;;15.25;100.00;100503.44;6138410;23;20008;-91
2022/10/15 11:09:11;;;;;;;6.85;4.10;;;;;;;15.29;100.00;100498.88;6178563;23;20259;-89
2022/10/15 11:11:51;;;;;;;4.95;3.63;;;;;;;15.32;100.00;100490.91;6180876;23;20059;-89
2022/10/15 11:14:40;;;;;;;4.80;3.58;;;;;;;15.39;100.00;100492.31;6181221;23;20008;-90
2022/10/15 11:17:06;;;;;;;5.13;3.58;;;;;;;15.45;100.00;100491.16;6180949;23;20525;-91